Aviation Digital Data Service (ADDS)

Output produced by TAFs form (1513 UTC 23 October 2017)
found at http://www.aviationweather.gov/adds/tafs/
 
KABY 231453Z 16012G20KT 7SM -RA BKN014 BKN028 OVC037 22/21 A2994 RMK AO2 RAB20 SLP136 P0000 60002 T02220211 58008
KABY 231120Z 2312/2412 18004KT 6SM -SHRA BKN011 BKN100 
     FM231700 29011KT P6SM SCT030